Time;durP1;ratioP1;P1;durP2;ratioP2;P2;SDS_P1;SDS_P2;PMS_P1;PMS_P2;Temp;Humidity;BMP_temperature;BMP_pressure;BME280_temperature;BME280_humidity;BME280_pressure;Samples;Min_cycle;Max_cycle;Signal;HPM_P1;HPM_P2
2022/09/23 00:02:17;;;;;;;2.27;1.70;;;17.00;51.60;;;;;;4962261;28;20494;-72
2022/09/23 00:04:45;;;;;;;2.57;1.67;;;17.00;51.60;;;;;;4936017;28;20479;-72
2022/09/23 00:07:16;;;;;;;2.07;1.70;;;17.00;51.40;;;;;;4939162;28;20437;-73
2022/09/23 00:09:44;;;;;;;2.47;1.80;;;17.00;51.40;;;;;;4934939;28;20839;-72
2022/09/23 00:12:12;;;;;;;1.97;1.63;;;17.00;51.60;;;;;;4947989;29;20446;-72
2022/09/23 00:14:40;;;;;;;2.00;1.60;;;17.00;51.30;;;;;;4957944;28;20866;-72
2022/09/23 00:17:09;;;;;;;1.60;1.50;;;17.00;51.30;;;;;;4943639;28;20501;-73
2022/09/23 00:19:39;;;;;;;2.50;1.70;;;17.00;51.40;;;;;;4949295;28;20674;-72
2022/09/23 00:22:07;;;;;;;2.07;1.70;;;17.00;51.30;;;;;;4949815;28;20436;-72
2022/09/23 00:24:38;;;;;;;1.73;1.60;;;17.00;51.30;;;;;;4955361;28;21017;-71
2022/09/23 00:27:07;;;;;;;1.83;1.70;;;17.00;51.40;;;;;;4947562;28;20518;-71
2022/09/23 00:29:35;;;;;;;2.60;1.67;;;17.10;51.60;;;;;;4950509;28;20478;-71
2022/09/23 00:32:04;;;;;;;2.97;1.97;;;17.00;51.20;;;;;;4951380;28;21105;-72
2022/09/23 00:34:33;;;;;;;2.40;1.73;;;17.00;51.30;;;;;;4963273;28;20510;-71
2022/09/23 00:37:02;;;;;;;2.57;2.20;;;17.00;52.40;;;;;;4948576;28;20871;-71
2022/09/23 00:39:31;;;;;;;2.00;1.80;;;17.00;50.60;;;;;;4936523;28;20557;-71
2022/09/23 00:42:01;;;;;;;1.53;1.43;;;17.00;51.00;;;;;;4946754;29;20528;-72
2022/09/23 00:44:45;;;;;;;1.83;1.60;;;17.00;51.00;;;;;;4949332;28;20471;-71
2022/09/23 00:47:20;;;;;;;2.13;1.93;;;17.00;50.90;;;;;;4945167;28;20470;-71
2022/09/23 00:50:00;;;;;;;1.50;1.40;;;17.00;50.60;;;;;;4946599;28;20570;-72
2022/09/23 00:52:31;;;;;;;1.90;1.70;;;17.00;51.10;;;;;;4948289;28;20443;-71
2022/09/23 00:55:04;;;;;;;1.63;1.47;;;17.00;51.00;;;;;;4946692;28;20990;-72
2022/09/23 00:57:37;;;;;;;1.90;1.80;;;17.00;50.70;;;;;;4937851;28;20451;-71
2022/09/23 01:00:13;;;;;;;1.67;1.57;;;17.00;51.80;;;;;;4947007;28;20608;-71
2022/09/23 01:02:41;;;;;;;1.53;1.43;;;17.00;50.80;;;;;;4954157;28;20474;-71
2022/09/23 01:05:10;;;;;;;1.70;1.60;;;17.00;51.10;;;;;;4953579;28;20454;-72
2022/09/23 01:07:38;;;;;;;1.77;1.67;;;17.00;51.00;;;;;;4953301;28;20439;-71
2022/09/23 01:10:09;;;;;;;2.43;1.73;;;17.00;51.00;;;;;;4965414;28;20791;-72
2022/09/23 01:12:55;;;;;;;2.63;1.50;;;17.00;50.70;;;;;;4952305;28;20450;-71
2022/09/23 01:15:32;;;;;;;3.20;1.30;;;17.00;51.00;;;;;;4958654;28;20489;-71
2022/09/23 01:18:08;;;;;;;1.97;1.47;;;17.00;51.30;;;;;;4949690;28;21036;-71
2022/09/23 01:20:58;;;;;;;1.50;1.40;;;17.00;51.20;;;;;;4969058;28;20485;-71
2022/09/23 01:24:01;;;;;;;1.60;1.50;;;17.00;51.70;;;;;;4966864;28;20881;-71
2022/09/23 01:26:49;;;;;;;3.43;1.40;;;17.00;51.30;;;;;;4953254;28;21032;-71
2022/09/23 01:29:48;;;;;;;1.63;1.47;;;17.00;51.40;;;;;;4900702;28;20471;-71
2022/09/23 01:32:26;;;;;;;2.07;1.20;;;17.00;51.60;;;;;;4952037;28;20433;-71
2022/09/23 01:44:24;;;;;;;2.17;1.80;;;17.00;51.80;;;;;;4966885;28;20478;-72
2022/09/23 01:46:55;;;;;;;2.20;1.50;;;17.00;51.90;;;;;;4943190;28;20494;-72
2022/09/23 01:49:30;;;;;;;1.80;1.70;;;17.00;51.90;;;;;;4943816;28;20494;-72
2022/09/23 01:52:04;;;;;;;2.77;1.43;;;16.90;51.80;;;;;;4961554;28;20437;-73
2022/09/23 01:54:38;;;;;;;2.00;1.53;;;17.00;51.90;;;;;;4945084;28;20580;-72
2022/09/23 01:57:31;;;;;;;1.97;1.50;;;17.00;51.90;;;;;;4969112;28;20881;-72
2022/09/23 02:00:19;;;;;;;1.60;1.50;;;17.00;51.80;;;;;;4949995;29;20966;-72
2022/09/23 02:03:12;;;;;;;1.60;1.33;;;16.90;51.90;;;;;;4957972;28;20573;-72
2022/09/23 02:06:04;;;;;;;1.87;1.30;;;16.90;51.80;;;;;;4948065;28;20443;-72
2022/09/23 02:08:37;;;;;;;1.77;1.50;;;16.90;51.80;;;;;;4952755;28;20521;-72
2022/09/23 02:11:08;;;;;;;2.03;1.50;;;16.90;51.80;;;;;;4955844;28;20481;-72
2022/09/23 02:13:45;;;;;;;1.50;1.40;;;16.90;51.90;;;;;;4946905;28;20971;-72
2022/09/23 02:16:21;;;;;;;1.93;1.20;;;16.90;51.90;;;;;;4961981;28;20496;-72
2022/09/23 02:18:54;;;;;;;1.67;1.33;;;16.90;52.10;;;;;;4943370;28;20530;-72
2022/09/23 02:21:27;;;;;;;2.03;1.60;;;16.90;51.90;;;;;;4948825;29;20471;-72
2022/09/23 02:24:02;;;;;;;2.37;1.73;;;16.90;52.00;;;;;;4945582;28;20514;-72
2022/09/23 02:26:34;;;;;;;1.40;1.30;;;16.90;52.00;;;;;;4962662;28;20500;-72
2022/09/23 02:29:11;;;;;;;2.03;1.43;;;16.90;52.00;;;;;;4954207;28;20489;-72
2022/09/23 02:31:45;;;;;;;1.47;1.37;;;16.90;52.00;;;;;;4946550;28;20438;-72
2022/09/23 02:34:22;;;;;;;1.60;1.50;;;16.90;52.00;;;;;;4944965;28;20535;-72
2022/09/23 02:37:05;;;;;;;1.53;1.30;;;16.90;52.00;;;;;;4955361;28;20541;-72
2022/09/23 02:39:41;;;;;;;2.90;1.80;;;16.90;52.00;;;;;;4954717;28;20483;-72
2022/09/23 02:42:16;;;;;;;1.70;1.60;;;16.90;52.00;;;;;;4941463;29;20542;-72
2022/09/23 02:44:44;;;;;;;1.00;0.90;;;16.90;52.00;;;;;;4965370;28;20479;-72
2022/09/23 02:47:13;;;;;;;2.33;1.50;;;16.90;52.00;;;;;;4950411;28;20814;-72
2022/09/23 02:49:41;;;;;;;1.23;1.13;;;16.90;52.00;;;;;;4966437;28;20994;-72
2022/09/23 02:52:12;;;;;;;1.20;1.10;;;16.90;51.90;;;;;;4962283;28;20454;-71
2022/09/23 02:54:41;;;;;;;2.20;1.43;;;16.90;52.00;;;;;;4950388;28;20483;-71
2022/09/23 02:57:10;;;;;;;2.07;1.23;;;16.90;52.10;;;;;;4949297;29;20499;-71
2022/09/23 02:59:38;;;;;;;3.37;1.53;;;16.90;52.10;;;;;;4965682;28;20916;-71
2022/09/23 03:02:42;;;;;;;0.97;0.93;;;16.90;52.00;;;;;;4963739;28;20865;-71
2022/09/23 03:05:18;;;;;;;1.40;1.30;;;16.90;52.10;;;;;;4960879;28;20469;-72
2022/09/23 03:07:59;;;;;;;1.30;1.20;;;16.90;52.00;;;;;;4952671;28;21021;-72
2022/09/23 03:10:35;;;;;;;2.60;1.90;;;16.90;51.90;;;;;;4941466;28;20439;-71
2022/09/23 03:13:15;;;;;;;1.77;1.40;;;16.80;51.90;;;;;;4945038;28;20485;-72
2022/09/23 03:15:52;;;;;;;1.33;1.10;;;16.80;51.90;;;;;;4961315;28;20502;-72
2022/09/23 03:18:31;;;;;;;1.63;1.33;;;16.80;51.80;;;;;;4951675;28;20573;-71
2022/09/23 03:21:06;;;;;;;1.83;1.20;;;16.80;51.90;;;;;;4968950;28;20506;-71
2022/09/23 03:23:39;;;;;;;2.40;1.17;;;16.80;51.90;;;;;;4942718;28;20569;-71
2022/09/23 03:26:12;;;;;;;1.20;1.10;;;16.80;51.90;;;;;;4952556;28;20498;-71
2022/09/23 03:28:43;;;;;;;1.10;1.00;;;16.80;51.80;;;;;;4949875;28;20554;-71
2022/09/23 03:31:12;;;;;;;1.40;1.30;;;16.80;51.90;;;;;;4968298;28;20435;-71
2022/09/23 03:33:45;;;;;;;1.67;1.57;;;16.80;51.90;;;;;;4946558;28;21026;-71
2022/09/23 03:39:12;;;;;;;1.60;1.50;;;16.80;51.90;;;;;;4950155;28;20918;-71
2022/09/23 03:41:49;;;;;;;1.40;1.30;;;16.80;51.90;;;;;;4964212;28;20443;-71
2022/09/23 03:44:18;;;;;;;1.27;1.17;;;16.80;51.90;;;;;;4956743;28;20468;-71
2022/09/23 03:46:49;;;;;;;1.10;1.00;;;16.80;51.90;;;;;;4958203;28;20467;-71
2022/09/23 03:49:26;;;;;;;1.67;1.47;;;16.80;51.90;;;;;;4963278;28;20994;-71
2022/09/23 03:51:54;;;;;;;5.13;1.60;;;16.80;51.90;;;;;;4952763;28;20485;-71
2022/09/23 03:54:25;;;;;;;1.40;1.30;;;16.80;51.90;;;;;;4941516;28;20563;-71
2022/09/23 03:56:56;;;;;;;1.30;1.10;;;16.80;51.90;;;;;;4941185;29;21022;-71
2022/09/23 03:59:25;;;;;;;1.57;1.30;;;16.80;51.90;;;;;;4943355;28;20465;-71
2022/09/23 04:01:54;;;;;;;1.37;1.27;;;16.80;51.90;;;;;;4943646;28;20942;-72
2022/09/23 04:04:24;;;;;;;2.27;1.27;;;16.80;52.00;;;;;;4943397;28;21036;-71
2022/09/23 04:06:55;;;;;;;1.33;1.17;;;16.80;52.00;;;;;;4948874;28;20473;-71
2022/09/23 04:09:25;;;;;;;1.40;1.30;;;16.80;51.90;;;;;;4961311;28;20799;-71
2022/09/23 04:11:54;;;;;;;1.53;1.43;;;16.70;51.90;;;;;;4943869;28;20446;-72
2022/09/23 04:14:23;;;;;;;1.40;1.30;;;16.80;51.90;;;;;;4943177;28;20459;-72
2022/09/23 04:16:51;;;;;;;1.80;1.50;;;16.80;52.00;;;;;;4941386;28;20469;-72
2022/09/23 04:19:20;;;;;;;1.20;1.10;;;16.70;51.90;;;;;;4955635;28;20803;-71
2022/09/23 04:21:48;;;;;;;1.30;1.20;;;16.70;51.80;;;;;;4959691;28;20515;-71
2022/09/23 04:24:17;;;;;;;1.60;1.40;;;16.70;52.00;;;;;;4940818;28;21018;-71
2022/09/23 04:26:51;;;;;;;1.40;1.30;;;16.70;51.90;;;;;;4952832;28;20459;-71
2022/09/23 04:29:20;;;;;;;1.70;1.40;;;16.70;51.80;;;;;;4964389;28;20466;-71
2022/09/23 04:31:48;;;;;;;1.60;1.50;;;16.70;51.90;;;;;;4954794;28;21222;-71
2022/09/23 04:34:18;;;;;;;1.83;1.33;;;16.70;51.90;;;;;;4964255;28;20577;-72
2022/09/23 04:36:49;;;;;;;0.97;0.90;;;16.70;51.90;;;;;;4954200;28;20498;-71
2022/09/23 04:39:18;;;;;;;1.50;1.03;;;16.70;51.90;;;;;;4957237;28;20519;-71
2022/09/23 04:41:49;;;;;;;1.20;1.10;;;16.70;52.00;;;;;;4954516;28;20451;-71
2022/09/23 04:44:17;;;;;;;2.90;1.00;;;16.70;52.00;;;;;;4970584;28;20505;-71
2022/09/23 04:46:46;;;;;;;1.70;1.40;;;16.70;51.90;;;;;;4949508;28;20561;-71
2022/09/23 04:49:16;;;;;;;1.30;1.20;;;16.70;51.90;;;;;;4954876;28;20490;-71
2022/09/23 04:51:44;;;;;;;1.30;1.20;;;16.70;51.90;;;;;;4944880;28;20439;-71
2022/09/23 04:54:14;;;;;;;1.40;1.30;;;16.70;52.00;;;;;;4940594;28;20910;-71
2022/09/23 04:56:42;;;;;;;1.70;1.60;;;16.70;51.90;;;;;;4955315;28;20455;-71
2022/09/23 04:59:12;;;;;;;1.10;1.00;;;16.70;51.90;;;;;;4966279;28;20562;-71
2022/09/23 05:01:40;;;;;;;2.10;1.60;;;16.70;51.90;;;;;;4954490;28;20454;-71
2022/09/23 05:04:12;;;;;;;2.33;1.57;;;16.70;51.90;;;;;;4952589;28;20471;-71
2022/09/23 05:06:42;;;;;;;1.73;1.20;;;16.60;51.90;;;;;;4954835;28;20981;-71
2022/09/23 05:09:16;;;;;;;1.40;1.30;;;16.70;51.90;;;;;;4946245;28;20485;-71
2022/09/23 05:11:45;;;;;;;0.80;0.80;;;16.60;51.90;;;;;;4969502;28;20434;-71
2022/09/23 05:14:15;;;;;;;2.40;1.23;;;16.60;51.80;;;;;;4949725;28;20502;-71
2022/09/23 05:16:43;;;;;;;2.43;1.27;;;16.60;51.80;;;;;;4951366;28;20562;-71
2022/09/23 05:19:12;;;;;;;3.17;1.90;;;16.60;51.80;;;;;;4955347;28;20829;-71
2022/09/23 05:21:43;;;;;;;1.40;1.30;;;16.60;51.80;;;;;;4946939;28;20490;-71
2022/09/23 05:24:12;;;;;;;1.43;1.03;;;16.60;51.80;;;;;;4949167;28;20483;-71
2022/09/23 05:26:41;;;;;;;1.27;1.17;;;16.60;51.80;;;;;;4954113;28;20510;-71
2022/09/23 05:29:10;;;;;;;2.00;1.30;;;16.60;51.80;;;;;;4948259;28;20831;-71
2022/09/23 05:31:40;;;;;;;1.53;1.37;;;16.60;51.80;;;;;;4952819;28;20450;-71
2022/09/23 05:34:08;;;;;;;1.67;1.33;;;16.60;51.80;;;;;;4942841;28;20490;-71
2022/09/23 05:36:37;;;;;;;1.90;1.20;;;16.60;51.80;;;;;;4956677;28;20481;-71
2022/09/23 05:39:07;;;;;;;1.77;1.20;;;16.60;51.80;;;;;;4951883;28;20474;-71
2022/09/23 05:41:37;;;;;;;1.63;1.30;;;16.60;51.80;;;;;;4951235;28;20444;-71
2022/09/23 05:44:07;;;;;;;2.00;1.50;;;16.60;51.80;;;;;;4956905;28;20606;-71
2022/09/23 05:46:35;;;;;;;1.90;1.53;;;16.60;51.90;;;;;;4953467;28;20541;-71
2022/09/23 05:49:07;;;;;;;1.70;1.40;;;16.60;51.80;;;;;;4959423;28;20951;-71
2022/09/23 05:51:38;;;;;;;1.23;1.10;;;16.60;51.80;;;;;;4967857;28;20438;-71
2022/09/23 05:54:07;;;;;;;1.23;0.93;;;16.60;51.90;;;;;;4947208;29;20483;-71
2022/09/23 05:56:36;;;;;;;1.60;1.27;;;16.60;51.80;;;;;;4968986;28;20470;-71
2022/09/23 05:59:06;;;;;;;1.40;1.30;;;16.60;51.80;;;;;;4947561;28;20501;-72
2022/09/23 06:01:37;;;;;;;1.00;0.90;;;16.50;51.80;;;;;;4952276;28;20493;-72
2022/09/23 06:04:08;;;;;;;1.87;1.40;;;16.60;51.80;;;;;;4947444;28;20510;-72
2022/09/23 06:06:39;;;;;;;1.13;1.03;;;16.60;51.90;;;;;;4953404;28;20486;-72
2022/09/23 06:09:10;;;;;;;1.30;1.17;;;16.60;52.00;;;;;;4964208;28;20510;-72
2022/09/23 06:11:39;;;;;;;1.37;1.10;;;16.50;51.70;;;;;;4952137;28;20957;-72
2022/09/23 06:14:08;;;;;;;1.83;1.40;;;16.50;51.80;;;;;;4952597;28;20486;-72
2022/09/23 06:16:36;;;;;;;2.20;1.10;;;16.50;51.80;;;;;;4941792;28;20893;-72
2022/09/23 06:19:06;;;;;;;2.00;1.40;;;16.50;51.80;;;;;;4955800;28;20474;-72
2022/09/23 06:21:37;;;;;;;1.20;1.10;;;16.50;51.70;;;;;;4944143;28;20538;-72
2022/09/23 06:24:07;;;;;;;1.30;1.10;;;16.50;51.80;;;;;;4959770;28;20919;-72
2022/09/23 06:26:37;;;;;;;1.43;1.33;;;16.50;51.90;;;;;;4956639;28;20456;-72
2022/09/23 06:29:10;;;;;;;4.20;1.10;;;16.50;51.80;;;;;;4970101;28;20846;-72
2022/09/23 06:31:40;;;;;;;1.20;1.10;;;16.50;51.90;;;;;;4938116;28;20582;-72
2022/09/23 06:34:13;;;;;;;1.60;1.50;;;16.50;51.80;;;;;;4949504;28;20470;-72
2022/09/23 06:36:42;;;;;;;2.57;1.37;;;16.50;51.80;;;;;;4950472;28;20994;-72
2022/09/23 06:39:14;;;;;;;1.30;1.20;;;16.50;51.80;;;;;;4950419;28;20487;-72
2022/09/23 06:41:43;;;;;;;1.60;1.23;;;16.50;51.80;;;;;;4958683;28;20435;-72
2022/09/23 06:44:14;;;;;;;1.17;1.07;;;16.50;51.70;;;;;;4966244;28;20470;-72
2022/09/23 06:46:43;;;;;;;1.40;1.30;;;16.50;51.70;;;;;;4940720;28;20482;-70
2022/09/23 06:49:14;;;;;;;1.43;1.20;;;16.50;51.70;;;;;;4960978;28;20978;-72
2022/09/23 06:51:42;;;;;;;1.43;1.23;;;16.50;51.80;;;;;;4966251;28;20444;-73
2022/09/23 06:54:10;;;;;;;1.20;1.20;;;16.50;51.70;;;;;;4950932;28;20569;-70
2022/09/23 06:56:39;;;;;;;1.13;1.03;;;16.50;51.80;;;;;;4939705;28;20470;-72
2022/09/23 06:59:09;;;;;;;1.40;1.30;;;16.50;51.70;;;;;;4955554;28;20479;-72
2022/09/23 07:01:37;;;;;;;1.53;1.43;;;16.50;51.90;;;;;;4947678;28;20502;-72
2022/09/23 07:04:06;;;;;;;1.70;1.20;;;16.50;51.90;;;;;;4948105;28;20488;-72
2022/09/23 07:06:37;;;;;;;1.63;1.30;;;16.50;51.80;;;;;;4952749;28;20896;-72
2022/09/23 07:09:06;;;;;;;1.57;1.40;;;16.50;51.80;;;;;;4957698;23;20937;-53
2022/09/23 07:11:35;;;;;;;1.87;1.43;;;16.50;51.90;;;;;;4938859;29;20600;-53
2022/09/23 07:14:04;;;;;;;1.60;1.13;;;16.50;51.80;;;;;;4915998;29;20467;-54
2022/09/23 07:16:33;;;;;;;2.40;1.17;;;16.50;51.80;;;;;;4912149;29;20449;-53
2022/09/23 07:19:05;;;;;;;1.33;1.20;;;16.50;52.00;;;;;;4912905;29;20469;-51
2022/09/23 07:21:36;;;;;;;2.40;1.33;;;16.50;52.00;;;;;;4922500;29;20788;-52
2022/09/23 07:24:06;;;;;;;1.93;1.40;;;16.50;52.00;;;;;;4925534;28;20515;-53
2022/09/23 07:26:34;;;;;;;1.03;1.00;;;16.40;52.00;;;;;;4923380;29;20963;-53
2022/09/23 07:29:04;;;;;;;1.60;1.50;;;16.50;52.10;;;;;;4917134;29;21044;-52
2022/09/23 07:31:34;;;;;;;1.30;1.20;;;16.50;52.30;;;;;;4941014;29;20814;-53
2022/09/23 07:34:08;;;;;;;1.60;1.50;;;16.50;52.10;;;;;;4922400;29;20535;-54
2022/09/23 07:36:40;;;;;;;1.60;1.30;;;16.40;52.10;;;;;;4921282;29;20847;-54
2022/09/23 07:39:10;;;;;;;1.40;1.30;;;16.40;52.10;;;;;;4911719;29;20576;-52
2022/09/23 07:41:40;;;;;;;1.10;1.00;;;16.40;52.10;;;;;;4909824;29;20501;-54
2022/09/23 07:44:10;;;;;;;1.83;1.40;;;16.40;52.00;;;;;;4912408;29;20492;-55
2022/09/23 07:46:39;;;;;;;1.57;1.13;;;16.50;52.10;;;;;;4932589;29;20445;-53
2022/09/23 07:49:09;;;;;;;1.90;1.53;;;16.50;52.10;;;;;;4926650;28;20532;-52
2022/09/23 07:51:41;;;;;;;1.63;1.10;;;16.40;52.10;;;;;;4912032;29;20472;-54
2022/09/23 07:54:13;;;;;;;1.27;1.17;;;16.40;52.10;;;;;;4936917;28;20875;-50
2022/09/23 07:56:43;;;;;;;1.73;1.20;;;16.50;52.20;;;;;;4908896;29;20532;-54
2022/09/23 07:59:14;;;;;;;2.20;1.20;;;16.40;52.10;;;;;;4941990;28;20477;-52
2022/09/23 08:01:47;;;;;;;3.00;1.50;;;16.40;52.20;;;;;;4911242;29;20446;-54
2022/09/23 08:04:17;;;;;;;1.17;1.07;;;16.40;52.10;;;;;;4921170;29;20477;-53
2022/09/23 08:06:49;;;;;;;1.17;1.07;;;16.40;52.20;;;;;;4929487;29;20433;-55
2022/09/23 08:09:19;;;;;;;1.90;1.43;;;16.50;52.20;;;;;;4923785;29;20477;-53
2022/09/23 08:11:51;;;;;;;1.80;1.47;;;16.40;52.20;;;;;;4892750;29;20894;-52
2022/09/23 08:14:21;;;;;;;1.30;1.17;;;16.40;52.20;;;;;;4915405;29;20499;-52
2022/09/23 08:17:15;;;;;;;3.83;1.10;;;16.40;52.20;;;;;;4906272;29;20474;-52
2022/09/23 08:19:44;;;;;;;1.20;1.10;;;16.40;52.20;;;;;;4908047;29;20531;-54
2022/09/23 08:22:14;;;;;;;1.30;1.20;;;16.40;52.30;;;;;;4917051;29;20444;-54
2022/09/23 08:24:45;;;;;;;1.70;1.60;;;16.40;52.20;;;;;;4912605;29;21011;-54
2022/09/23 08:27:13;;;;;;;1.67;1.57;;;16.40;52.40;;;;;;4902751;29;20434;-52
2022/09/23 08:29:42;;;;;;;1.10;1.00;;;16.40;52.30;;;;;;4894064;29;20473;-54
2022/09/23 08:32:11;;;;;;;1.40;1.07;;;16.40;52.20;;;;;;4897289;29;20436;-52
2022/09/23 08:34:39;;;;;;;1.13;1.03;;;16.40;52.30;;;;;;4912335;29;20481;-51
2022/09/23 08:37:10;;;;;;;1.30;1.00;;;16.40;52.30;;;;;;4897190;29;20820;-53
2022/09/23 08:39:40;;;;;;;1.43;1.17;;;16.40;52.30;;;;;;4906941;29;20906;-55
2022/09/23 08:42:17;;;;;;;1.60;1.20;;;16.40;52.40;;;;;;4904393;29;20582;-54
2022/09/23 08:44:49;;;;;;;1.30;1.20;;;16.40;52.30;;;;;;4896300;29;20492;-53
2022/09/23 08:47:23;;;;;;;1.93;1.73;;;16.40;52.30;;;;;;4919245;29;20445;-52
2022/09/23 08:50:00;;;;;;;1.40;1.30;;;16.40;52.40;;;;;;4911565;28;20915;-53
2022/09/23 08:52:34;;;;;;;1.23;1.13;;;16.40;52.40;;;;;;4897348;29;20492;-53
2022/09/23 08:55:06;;;;;;;1.20;1.10;;;16.40;52.40;;;;;;4883904;29;20523;-52
2022/09/23 08:57:58;;;;;;;1.37;1.27;;;16.40;52.40;;;;;;4907887;29;20433;-54
2022/09/23 09:00:55;;;;;;;2.40;1.30;;;16.40;52.40;;;;;;4898360;29;20504;-55
2022/09/23 09:03:28;;;;;;;1.33;1.13;;;16.40;52.50;;;;;;4902940;29;20479;-53
2022/09/23 09:05:58;;;;;;;1.37;1.27;;;16.40;52.50;;;;;;4904165;29;20512;-53
2022/09/23 09:08:32;;;;;;;2.70;1.27;;;16.40;52.60;;;;;;4917410;29;20501;-53
2022/09/23 09:11:03;;;;;;;1.80;1.70;;;16.40;52.40;;;;;;4897363;29;20441;-53
2022/09/23 09:13:35;;;;;;;1.37;1.27;;;16.40;52.50;;;;;;4889535;29;20441;-54
2022/09/23 09:16:24;;;;;;;1.53;1.37;;;16.40;52.50;;;;;;4899894;29;20461;-53
2022/09/23 09:19:20;;;;;;;1.77;1.23;;;16.40;52.50;;;;;;4898945;29;20485;-53
2022/09/23 09:21:55;;;;;;;1.73;1.43;;;16.40;52.60;;;;;;4907236;29;20824;-51
2022/09/23 09:24:31;;;;;;;1.37;1.10;;;16.40;52.60;;;;;;4894879;29;20790;-53
2022/09/23 09:27:11;;;;;;;1.13;1.03;;;16.40;52.60;;;;;;4901111;29;20515;-53
2022/09/23 09:29:45;;;;;;;1.60;1.30;;;16.40;52.70;;;;;;4911352;28;20567;-54
2022/09/23 09:32:20;;;;;;;2.43;1.17;;;16.40;52.70;;;;;;4901030;29;20473;-54
2022/09/23 09:34:54;;;;;;;1.40;1.10;;;16.40;52.60;;;;;;4913917;29;20495;-53
2022/09/23 09:37:27;;;;;;;1.43;1.00;;;16.40;52.70;;;;;;4894942;29;20488;-54
2022/09/23 09:40:00;;;;;;;1.60;1.50;;;16.40;52.70;;;;;;4896106;29;20942;-54
2022/09/23 09:42:39;;;;;;;2.00;1.40;;;16.40;52.70;;;;;;4921728;29;20473;-52
2022/09/23 09:45:18;;;;;;;1.67;1.47;;;16.40;52.70;;;;;;4904859;29;20564;-54
2022/09/23 09:47:55;;;;;;;4.17;1.50;;;16.40;52.80;;;;;;4890259;29;20832;-53
2022/09/23 09:50:43;;;;;;;2.17;1.27;;;16.40;52.80;;;;;;4902320;29;20482;-51
2022/09/23 09:53:21;;;;;;;1.77;1.17;;;16.40;52.90;;;;;;4912747;29;20773;-53
2022/09/23 09:55:59;;;;;;;2.23;1.77;;;16.40;52.90;;;;;;4893334;29;20516;-53
2022/09/23 09:58:42;;;;;;;1.73;1.47;;;16.40;52.90;;;;;;4898282;29;21003;-52
2022/09/23 10:01:19;;;;;;;0.97;0.97;;;16.40;52.90;;;;;;4905030;29;20880;-54
2022/09/23 10:03:50;;;;;;;3.17;1.40;;;16.40;52.90;;;;;;4905725;29;20487;-53
2022/09/23 10:06:26;;;;;;;1.47;1.37;;;16.40;52.90;;;;;;4919524;29;20811;-54
2022/09/23 10:09:18;;;;;;;1.50;1.40;;;16.40;53.00;;;;;;4919311;28;20882;-53
2022/09/23 10:12:14;;;;;;;1.87;1.30;;;16.40;53.00;;;;;;4930764;29;20440;-54
2022/09/23 10:14:44;;;;;;;1.10;1.00;;;16.40;53.00;;;;;;4934722;28;20884;-54
2022/09/23 10:17:19;;;;;;;1.17;1.07;;;16.40;53.10;;;;;;4920015;29;20450;-52
2022/09/23 10:19:50;;;;;;;3.67;1.30;;;16.40;53.00;;;;;;4930163;28;20484;-53
2022/09/23 10:22:25;;;;;;;1.50;1.40;;;16.40;53.10;;;;;;4937271;29;20842;-53
2022/09/23 10:24:55;;;;;;;1.37;1.23;;;16.40;54.30;;;;;;4907207;29;20890;-53
2022/09/23 10:27:30;;;;;;;1.10;1.00;;;16.40;53.10;;;;;;4922128;29;20816;-54
2022/09/23 10:30:02;;;;;;;1.50;1.40;;;16.40;53.20;;;;;;4936402;28;20477;-52
2022/09/23 10:32:35;;;;;;;1.37;1.17;;;16.40;53.10;;;;;;4916059;29;20445;-53
2022/09/23 10:35:13;;;;;;;1.30;1.20;;;16.40;53.20;;;;;;4911590;29;20473;-52
2022/09/23 10:37:45;;;;;;;1.43;1.33;;;16.40;53.20;;;;;;4921440;29;20975;-53
2022/09/23 10:49:51;;;;;;;1.37;1.20;;;16.40;53.50;;;;;;4911118;29;20582;-53
2022/09/23 10:52:35;;;;;;;2.30;1.77;;;16.50;53.50;;;;;;4911918;29;20536;-54
2022/09/23 10:55:14;;;;;;;1.70;1.37;;;16.40;53.50;;;;;;4921375;29;21494;-55
2022/09/23 10:57:56;;;;;;;1.30;1.20;;;16.40;53.50;;;;;;4912212;29;20505;-53
2022/09/23 11:00:36;;;;;;;2.40;1.07;;;16.40;53.50;;;;;;4910973;29;20496;-54
2022/09/23 11:03:24;;;;;;;2.03;1.07;;;16.40;53.50;;;;;;4922459;29;20459;-53
2022/09/23 11:06:05;;;;;;;1.63;1.43;;;16.40;53.50;;;;;;4914781;29;21066;-53
2022/09/23 11:08:54;;;;;;;1.97;1.23;;;16.40;53.50;;;;;;4922135;29;20984;-52
2022/09/23 11:11:34;;;;;;;1.90;1.40;;;16.40;53.50;;;;;;4911911;29;20442;-53
2022/09/23 11:14:16;;;;;;;1.30;1.20;;;16.40;53.60;;;;;;4891274;29;20476;-52
2022/09/23 11:17:04;;;;;;;2.67;1.30;;;16.40;53.50;;;;;;4915067;29;20452;-53
2022/09/23 11:20:02;;;;;;;2.07;1.20;;;16.40;53.90;;;;;;4927948;29;20481;-53
2022/09/23 11:22:52;;;;;;;1.23;0.83;;;16.40;53.60;;;;;;4933199;29;20537;-54
2022/09/23 11:25:32;;;;;;;5.47;1.10;;;16.40;53.70;;;;;;4910827;29;21043;-53
2022/09/23 11:28:32;;;;;;;2.33;1.13;;;16.40;53.60;;;;;;4912274;29;20473;-54
2022/09/23 11:31:09;;;;;;;1.60;1.30;;;16.40;53.60;;;;;;4913138;29;20441;-53
2022/09/23 11:33:52;;;;;;;1.10;0.90;;;16.40;53.60;;;;;;4912876;29;20461;-52
2022/09/23 11:36:31;;;;;;;2.10;1.00;;;16.40;53.60;;;;;;4905787;29;20528;-53
2022/09/23 11:39:06;;;;;;;1.03;0.87;;;16.40;53.70;;;;;;4916857;28;20480;-53
2022/09/23 11:41:39;;;;;;;3.57;1.00;;;16.50;53.80;;;;;;4914672;29;20564;-51
2022/09/23 11:44:14;;;;;;;2.23;1.20;;;16.40;53.70;;;;;;4929850;29;20466;-54
2022/09/23 11:46:48;;;;;;;2.67;1.40;;;16.40;53.70;;;;;;4913206;29;20441;-54
2022/09/23 11:49:21;;;;;;;1.20;1.10;;;16.50;53.70;;;;;;4917286;29;20997;-55
2022/09/23 11:52:01;;;;;;;2.03;1.27;;;16.40;52.60;;;;;;4911905;29;20437;-53
2022/09/23 11:54:34;;;;;;;3.43;1.57;;;16.50;53.80;;;;;;4913529;29;20489;-55
2022/09/23 11:57:08;;;;;;;1.00;0.90;;;16.40;53.70;;;;;;4927202;29;20442;-53
2022/09/23 11:59:42;;;;;;;2.30;1.43;;;16.40;53.70;;;;;;4912130;29;20474;-55
2022/09/23 12:02:19;;;;;;;1.30;1.00;;;16.40;53.80;;;;;;4920155;29;20524;-54
2022/09/23 12:05:01;;;;;;;2.03;1.20;;;16.50;53.90;;;;;;4920000;28;20555;-53
2022/09/23 12:07:43;;;;;;;1.33;1.23;;;16.50;53.80;;;;;;4920754;29;20504;-54
2022/09/23 12:10:12;;;;;;;1.40;1.00;;;16.40;53.70;;;;;;4911738;29;20815;-54
2022/09/23 12:12:51;;;;;;;1.53;1.43;;;16.40;53.60;;;;;;4917778;29;20446;-54
2022/09/23 12:15:34;;;;;;;2.67;1.30;;;16.50;53.70;;;;;;4911477;29;20511;-54
2022/09/23 12:18:26;;;;;;;3.33;1.23;;;16.50;53.60;;;;;;4898603;29;20845;-55
2022/09/23 12:21:20;;;;;;;3.23;1.20;;;16.50;53.70;;;;;;4932766;29;20466;-53
2022/09/23 12:24:27;;;;;;;1.50;1.00;;;16.50;53.60;;;;;;4906035;29;20500;-54
2022/09/23 12:27:00;;;;;;;1.10;1.00;;;16.50;53.50;;;;;;4881637;29;20461;-54
2022/09/23 12:29:31;;;;;;;1.27;1.10;;;16.50;53.50;;;;;;4916487;29;20473;-55
2022/09/23 12:32:01;;;;;;;1.33;1.20;;;16.50;53.50;;;;;;4938983;29;20453;-54
2022/09/23 12:34:38;;;;;;;2.53;1.70;;;16.50;53.40;;;;;;4919440;29;20479;-55
2022/09/23 12:37:07;;;;;;;1.60;1.37;;;16.50;53.50;;;;;;4908381;29;20574;-52
2022/09/23 12:39:38;;;;;;;2.70;1.30;;;16.50;53.50;;;;;;4919123;28;20477;-53
2022/09/23 12:42:16;;;;;;;2.87;1.17;;;16.50;53.40;;;;;;4908570;29;20473;-55
2022/09/23 12:44:46;;;;;;;2.20;1.13;;;16.50;53.50;;;;;;4918419;29;20485;-54
2022/09/23 12:47:39;;;;;;;2.20;1.20;;;16.50;53.50;;;;;;4923163;29;20450;-54
2022/09/23 12:50:54;;;;;;;1.67;1.00;;;16.50;53.60;;;;;;4920696;29;20476;-54
2022/09/23 12:53:57;;;;;;;1.40;1.20;;;16.50;53.50;;;;;;4886568;29;20484;-53
2022/09/23 12:57:01;;;;;;;1.63;1.20;;;16.50;53.40;;;;;;4910368;29;20540;-52
2022/09/23 12:59:32;;;;;;;1.80;1.60;;;16.50;53.30;;;;;;4935949;28;20476;-55
2022/09/23 13:02:23;;;;;;;1.20;1.07;;;16.50;53.30;;;;;;4917931;29;20529;-54
2022/09/23 13:07:50;;;;;;;3.00;1.40;;;16.50;53.00;;;;;;4918486;29;20445;-54
2022/09/23 13:10:25;;;;;;;1.67;1.50;;;16.50;53.10;;;;;;4949799;29;20495;-55
2022/09/23 13:12:56;;;;;;;1.67;1.40;;;16.50;53.10;;;;;;4962242;28;20763;-51
2022/09/23 13:15:29;;;;;;;2.00;1.67;;;16.50;54.20;;;;;;4962226;28;20466;-53
2022/09/23 13:18:31;;;;;;;1.60;1.33;;;16.50;53.10;;;;;;4942870;29;20439;-53
2022/09/23 13:21:00;;;;;;;1.77;1.10;;;16.60;53.20;;;;;;4923612;29;20547;-52
2022/09/23 13:23:30;;;;;;;1.20;1.10;;;16.50;53.20;;;;;;4944133;28;21271;-57
2022/09/23 13:26:01;;;;;;;2.50;1.27;;;16.60;53.30;;;;;;4945402;28;20885;-54
2022/09/23 13:28:38;;;;;;;2.40;1.20;;;16.50;53.20;;;;;;4944895;28;20486;-55
2022/09/23 13:31:14;;;;;;;1.97;1.10;;;16.50;53.20;;;;;;4943391;28;20940;-52
2022/09/23 13:33:46;;;;;;;3.33;1.67;;;16.50;53.20;;;;;;4940281;28;20998;-54
2022/09/23 13:36:17;;;;;;;1.47;1.30;;;16.50;53.10;;;;;;4942262;28;20460;-53
2022/09/23 13:38:46;;;;;;;1.73;1.27;;;16.50;53.10;;;;;;4926975;28;20869;-53
2022/09/23 13:41:17;;;;;;;2.77;1.50;;;16.50;53.20;;;;;;4942816;29;20440;-54
2022/09/23 13:43:50;;;;;;;1.70;1.23;;;16.60;53.30;;;;;;4942982;28;20487;-56
2022/09/23 13:46:21;;;;;;;1.50;1.30;;;16.60;53.20;;;;;;4950489;28;20828;-55
2022/09/23 13:48:54;;;;;;;1.43;1.10;;;16.50;53.10;;;;;;4943724;29;20651;-55
2022/09/23 13:51:25;;;;;;;1.37;1.20;;;16.60;53.30;;;;;;4956755;28;20442;-55